sensor_id;sensor_type;location;lat;lon;timestamp;P1;durP1;ratioP1;P2;durP2;ratioP2
59854;SDS011;45732;52.850;6.896;2023-07-02T00:01:48;9.82;;;5.57;;
59854;SDS011;45732;52.850;6.896;2023-07-02T00:04:14;8.10;;;5.28;;
59854;SDS011;45732;52.850;6.896;2023-07-02T00:06:47;9.48;;;5.20;;
59854;SDS011;45732;52.850;6.896;2023-07-02T00:09:13;9.07;;;5.72;;
59854;SDS011;45732;52.850;6.896;2023-07-02T00:11:40;7.75;;;5.28;;
59854;SDS011;45732;52.850;6.896;2023-07-02T00:14:13;9.70;;;5.68;;
59854;SDS011;45732;52.850;6.896;2023-07-02T00:16:42;11.63;;;5.68;;
59854;SDS011;45732;52.850;6.896;2023-07-02T00:19:10;9.75;;;5.68;;
59854;SDS011;45732;52.850;6.896;2023-07-02T00:21:37;10.55;;;6.35;;
59854;SDS011;45732;52.850;6.896;2023-07-02T00:24:05;10.82;;;5.53;;
59854;SDS011;45732;52.850;6.896;2023-07-02T00:26:31;8.07;;;5.43;;
59854;SDS011;45732;52.850;6.896;2023-07-02T00:28:56;9.10;;;5.35;;
59854;SDS011;45732;52.850;6.896;2023-07-02T00:31:22;8.88;;;6.13;;
59854;SDS011;45732;52.850;6.896;2023-07-02T00:33:49;8.85;;;5.97;;
59854;SDS011;45732;52.850;6.896;2023-07-02T00:36:15;10.70;;;5.97;;
59854;SDS011;45732;52.850;6.896;2023-07-02T00:38:42;8.07;;;5.60;;
59854;SDS011;45732;52.850;6.896;2023-07-02T00:41:09;9.20;;;5.50;;
59854;SDS011;45732;52.850;6.896;2023-07-02T00:43:36;9.20;;;5.65;;
59854;SDS011;45732;52.850;6.896;2023-07-02T00:46:04;11.00;;;5.88;;
59854;SDS011;45732;52.850;6.896;2023-07-02T00:48:30;10.23;;;5.45;;
59854;SDS011;45732;52.850;6.896;2023-07-02T00:50:57;12.27;;;6.03;;
59854;SDS011;45732;52.850;6.896;2023-07-02T00:53:22;9.25;;;5.57;;
59854;SDS011;45732;52.850;6.896;2023-07-02T00:55:48;12.35;;;5.78;;
59854;SDS011;45732;52.850;6.896;2023-07-02T00:58:14;10.38;;;5.57;;
59854;SDS011;45732;52.850;6.896;2023-07-02T01:00:41;9.55;;;5.50;;
59854;SDS011;45732;52.850;6.896;2023-07-02T01:03:07;10.90;;;5.55;;
59854;SDS011;45732;52.850;6.896;2023-07-02T01:05:33;10.38;;;5.30;;
59854;SDS011;45732;52.850;6.896;2023-07-02T01:08:04;11.25;;;5.35;;
59854;SDS011;45732;52.850;6.896;2023-07-02T01:10:31;15.52;;;5.90;;
59854;SDS011;45732;52.850;6.896;2023-07-02T01:13:02;12.50;;;5.45;;
59854;SDS011;45732;52.850;6.896;2023-07-02T01:15:40;9.93;;;5.43;;
59854;SDS011;45732;52.850;6.896;2023-07-02T01:18:07;11.68;;;5.60;;
59854;SDS011;45732;52.850;6.896;2023-07-02T01:20:33;12.27;;;5.53;;
59854;SDS011;45732;52.850;6.896;2023-07-02T01:23:01;14.65;;;6.22;;
59854;SDS011;45732;52.850;6.896;2023-07-02T01:25:27;13.60;;;5.60;;
59854;SDS011;45732;52.850;6.896;2023-07-02T01:27:53;12.02;;;5.88;;
59854;SDS011;45732;52.850;6.896;2023-07-02T01:30:20;12.48;;;5.65;;
59854;SDS011;45732;52.850;6.896;2023-07-02T01:32:46;11.18;;;6.50;;
59854;SDS011;45732;52.850;6.896;2023-07-02T01:35:12;12.32;;;5.72;;
59854;SDS011;45732;52.850;6.896;2023-07-02T01:37:38;13.13;;;5.50;;
59854;SDS011;45732;52.850;6.896;2023-07-02T01:40:03;12.07;;;5.72;;
59854;SDS011;45732;52.850;6.896;2023-07-02T01:42:33;13.43;;;6.00;;
59854;SDS011;45732;52.850;6.896;2023-07-02T01:44:59;12.40;;;5.68;;
59854;SDS011;45732;52.850;6.896;2023-07-02T01:47:25;13.85;;;6.10;;
59854;SDS011;45732;52.850;6.896;2023-07-02T01:49:51;15.73;;;6.18;;
59854;SDS011;45732;52.850;6.896;2023-07-02T01:52:16;13.45;;;6.07;;
59854;SDS011;45732;52.850;6.896;2023-07-02T01:54:42;13.32;;;6.70;;
59854;SDS011;45732;52.850;6.896;2023-07-02T01:57:09;12.35;;;5.95;;
59854;SDS011;45732;52.850;6.896;2023-07-02T01:59:35;12.25;;;6.15;;
59854;SDS011;45732;52.850;6.896;2023-07-02T02:02:01;12.93;;;6.28;;
59854;SDS011;45732;52.850;6.896;2023-07-02T02:04:26;16.70;;;6.65;;
59854;SDS011;45732;52.850;6.896;2023-07-02T02:06:52;14.45;;;6.57;;
59854;SDS011;45732;52.850;6.896;2023-07-02T02:09:18;16.55;;;6.82;;
59854;SDS011;45732;52.850;6.896;2023-07-02T02:11:45;16.15;;;6.22;;
59854;SDS011;45732;52.850;6.896;2023-07-02T02:14:13;16.35;;;6.43;;
59854;SDS011;45732;52.850;6.896;2023-07-02T02:16:39;16.85;;;6.90;;
59854;SDS011;45732;52.850;6.896;2023-07-02T02:19:05;15.00;;;7.38;;
59854;SDS011;45732;52.850;6.896;2023-07-02T02:21:31;14.48;;;7.03;;
59854;SDS011;45732;52.850;6.896;2023-07-02T02:23:56;21.48;;;6.60;;
59854;SDS011;45732;52.850;6.896;2023-07-02T02:26:22;14.55;;;6.85;;
59854;SDS011;45732;52.850;6.896;2023-07-02T02:28:50;13.35;;;6.72;;
59854;SDS011;45732;52.850;6.896;2023-07-02T02:31:16;14.43;;;6.78;;
59854;SDS011;45732;52.850;6.896;2023-07-02T02:33:42;16.83;;;7.22;;
59854;SDS011;45732;52.850;6.896;2023-07-02T02:36:08;18.00;;;7.18;;
59854;SDS011;45732;52.850;6.896;2023-07-02T02:38:33;17.85;;;7.35;;
59854;SDS011;45732;52.850;6.896;2023-07-02T02:40:59;16.35;;;6.97;;
59854;SDS011;45732;52.850;6.896;2023-07-02T02:43:27;20.70;;;7.50;;
59854;SDS011;45732;52.850;6.896;2023-07-02T02:45:52;15.20;;;6.95;;
59854;SDS011;45732;52.850;6.896;2023-07-02T02:48:18;19.10;;;7.80;;
59854;SDS011;45732;52.850;6.896;2023-07-02T02:50:44;16.55;;;7.60;;
59854;SDS011;45732;52.850;6.896;2023-07-02T02:53:10;17.90;;;7.20;;
59854;SDS011;45732;52.850;6.896;2023-07-02T02:55:36;20.45;;;7.78;;
59854;SDS011;45732;52.850;6.896;2023-07-02T02:58:02;18.52;;;8.63;;
59854;SDS011;45732;52.850;6.896;2023-07-02T03:00:28;19.17;;;8.05;;
59854;SDS011;45732;52.850;6.896;2023-07-02T03:02:54;19.90;;;8.32;;
59854;SDS011;45732;52.850;6.896;2023-07-02T03:05:21;23.23;;;8.25;;
59854;SDS011;45732;52.850;6.896;2023-07-02T03:07:47;20.73;;;8.77;;
59854;SDS011;45732;52.850;6.896;2023-07-02T03:10:13;23.73;;;9.25;;
59854;SDS011;45732;52.850;6.896;2023-07-02T03:12:39;18.85;;;7.65;;
59854;SDS011;45732;52.850;6.896;2023-07-02T03:15:04;22.15;;;9.05;;
59854;SDS011;45732;52.850;6.896;2023-07-02T03:17:31;21.02;;;8.88;;
59854;SDS011;45732;52.850;6.896;2023-07-02T03:19:56;20.52;;;8.60;;
59854;SDS011;45732;52.850;6.896;2023-07-02T03:22:22;20.65;;;8.75;;
59854;SDS011;45732;52.850;6.896;2023-07-02T03:24:48;21.88;;;9.02;;
59854;SDS011;45732;52.850;6.896;2023-07-02T03:27:13;18.35;;;8.35;;
59854;SDS011;45732;52.850;6.896;2023-07-02T03:29:39;21.73;;;8.93;;
59854;SDS011;45732;52.850;6.896;2023-07-02T03:32:05;29.00;;;9.15;;
59854;SDS011;45732;52.850;6.896;2023-07-02T03:34:31;20.58;;;9.35;;
59854;SDS011;45732;52.850;6.896;2023-07-02T03:36:56;19.63;;;9.13;;
59854;SDS011;45732;52.850;6.896;2023-07-02T03:39:22;21.42;;;8.85;;
59854;SDS011;45732;52.850;6.896;2023-07-02T03:41:48;18.67;;;8.73;;
59854;SDS011;45732;52.850;6.896;2023-07-02T03:44:13;24.75;;;8.93;;
59854;SDS011;45732;52.850;6.896;2023-07-02T03:46:39;23.20;;;10.13;;
59854;SDS011;45732;52.850;6.896;2023-07-02T03:49:05;23.17;;;9.05;;
59854;SDS011;45732;52.850;6.896;2023-07-02T03:51:31;21.67;;;9.05;;
59854;SDS011;45732;52.850;6.896;2023-07-02T03:54:00;21.83;;;9.35;;
59854;SDS011;45732;52.850;6.896;2023-07-02T03:56:25;22.67;;;9.23;;
59854;SDS011;45732;52.850;6.896;2023-07-02T03:58:51;21.67;;;8.93;;
59854;SDS011;45732;52.850;6.896;2023-07-02T04:01:17;22.85;;;9.02;;
59854;SDS011;45732;52.850;6.896;2023-07-02T04:03:50;22.60;;;9.18;;
59854;SDS011;45732;52.850;6.896;2023-07-02T04:06:16;21.30;;;9.02;;
59854;SDS011;45732;52.850;6.896;2023-07-02T04:08:42;21.92;;;8.77;;
59854;SDS011;45732;52.850;6.896;2023-07-02T04:11:09;20.67;;;9.55;;
59854;SDS011;45732;52.850;6.896;2023-07-02T04:13:35;21.67;;;9.32;;
59854;SDS011;45732;52.850;6.896;2023-07-02T04:16:00;26.63;;;9.77;;
59854;SDS011;45732;52.850;6.896;2023-07-02T04:18:26;23.63;;;9.23;;
59854;SDS011;45732;52.850;6.896;2023-07-02T04:20:54;21.77;;;8.55;;
59854;SDS011;45732;52.850;6.896;2023-07-02T04:23:19;22.35;;;9.10;;
59854;SDS011;45732;52.850;6.896;2023-07-02T04:25:45;23.08;;;9.27;;
59854;SDS011;45732;52.850;6.896;2023-07-02T04:28:11;25.92;;;9.32;;
59854;SDS011;45732;52.850;6.896;2023-07-02T04:30:37;23.58;;;10.02;;
59854;SDS011;45732;52.850;6.896;2023-07-02T04:33:02;20.58;;;9.15;;
59854;SDS011;45732;52.850;6.896;2023-07-02T04:35:28;24.05;;;8.95;;
59854;SDS011;45732;52.850;6.896;2023-07-02T04:37:54;22.25;;;9.00;;
59854;SDS011;45732;52.850;6.896;2023-07-02T04:40:20;21.33;;;9.18;;
59854;SDS011;45732;52.850;6.896;2023-07-02T04:42:45;23.13;;;8.98;;
59854;SDS011;45732;52.850;6.896;2023-07-02T04:45:20;23.88;;;8.90;;
59854;SDS011;45732;52.850;6.896;2023-07-02T04:47:46;25.85;;;9.25;;
59854;SDS011;45732;52.850;6.896;2023-07-02T04:50:12;23.55;;;9.20;;
59854;SDS011;45732;52.850;6.896;2023-07-02T04:52:38;21.83;;;9.35;;
59854;SDS011;45732;52.850;6.896;2023-07-02T04:55:04;23.88;;;9.73;;
59854;SDS011;45732;52.850;6.896;2023-07-02T04:57:30;22.77;;;9.27;;
59854;SDS011;45732;52.850;6.896;2023-07-02T04:59:56;25.20;;;9.30;;
59854;SDS011;45732;52.850;6.896;2023-07-02T05:02:22;20.38;;;8.57;;
59854;SDS011;45732;52.850;6.896;2023-07-02T05:04:48;22.30;;;9.32;;
59854;SDS011;45732;52.850;6.896;2023-07-02T05:07:15;21.92;;;9.35;;
59854;SDS011;45732;52.850;6.896;2023-07-02T05:09:41;20.23;;;8.98;;
59854;SDS011;45732;52.850;6.896;2023-07-02T05:12:07;21.77;;;9.55;;
59854;SDS011;45732;52.850;6.896;2023-07-02T05:14:34;21.27;;;9.20;;
59854;SDS011;45732;52.850;6.896;2023-07-02T05:16:59;23.27;;;9.27;;
59854;SDS011;45732;52.850;6.896;2023-07-02T05:19:25;22.75;;;9.23;;
59854;SDS011;45732;52.850;6.896;2023-07-02T05:21:51;24.13;;;9.82;;
59854;SDS011;45732;52.850;6.896;2023-07-02T05:24:17;19.27;;;9.38;;
59854;SDS011;45732;52.850;6.896;2023-07-02T05:26:42;20.77;;;8.75;;
59854;SDS011;45732;52.850;6.896;2023-07-02T05:29:08;22.48;;;8.75;;
59854;SDS011;45732;52.850;6.896;2023-07-02T05:31:34;25.15;;;9.50;;
59854;SDS011;45732;52.850;6.896;2023-07-02T05:34:00;21.67;;;9.00;;
59854;SDS011;45732;52.850;6.896;2023-07-02T05:36:26;23.30;;;9.32;;
59854;SDS011;45732;52.850;6.896;2023-07-02T05:38:51;23.52;;;9.00;;
59854;SDS011;45732;52.850;6.896;2023-07-02T05:41:17;23.10;;;9.32;;
59854;SDS011;45732;52.850;6.896;2023-07-02T05:43:44;20.55;;;8.82;;
59854;SDS011;45732;52.850;6.896;2023-07-02T05:46:09;23.55;;;9.38;;
59854;SDS011;45732;52.850;6.896;2023-07-02T05:48:35;22.58;;;9.60;;
59854;SDS011;45732;52.850;6.896;2023-07-02T05:51:01;20.85;;;9.07;;
59854;SDS011;45732;52.850;6.896;2023-07-02T05:53:27;26.50;;;9.75;;
59854;SDS011;45732;52.850;6.896;2023-07-02T05:55:53;29.45;;;9.85;;
59854;SDS011;45732;52.850;6.896;2023-07-02T05:58:18;22.55;;;8.77;;
59854;SDS011;45732;52.850;6.896;2023-07-02T06:00:44;21.05;;;8.77;;
59854;SDS011;45732;52.850;6.896;2023-07-02T06:03:14;20.52;;;8.98;;
59854;SDS011;45732;52.850;6.896;2023-07-02T06:05:45;24.55;;;9.30;;
59854;SDS011;45732;52.850;6.896;2023-07-02T06:08:12;26.05;;;9.30;;
59854;SDS011;45732;52.850;6.896;2023-07-02T06:10:38;25.17;;;8.50;;
59854;SDS011;45732;52.850;6.896;2023-07-02T06:13:04;26.98;;;9.77;;
59854;SDS011;45732;52.850;6.896;2023-07-02T06:15:30;23.55;;;9.73;;
59854;SDS011;45732;52.850;6.896;2023-07-02T06:17:56;21.17;;;8.95;;
59854;SDS011;45732;52.850;6.896;2023-07-02T06:20:21;20.80;;;8.60;;
59854;SDS011;45732;52.850;6.896;2023-07-02T06:22:47;26.83;;;9.48;;
59854;SDS011;45732;52.850;6.896;2023-07-02T06:25:13;25.88;;;9.55;;
59854;SDS011;45732;52.850;6.896;2023-07-02T06:27:39;21.65;;;8.68;;
59854;SDS011;45732;52.850;6.896;2023-07-02T06:30:04;20.45;;;8.85;;
59854;SDS011;45732;52.850;6.896;2023-07-02T06:32:31;20.67;;;8.65;;
59854;SDS011;45732;52.850;6.896;2023-07-02T06:34:57;20.85;;;8.68;;
59854;SDS011;45732;52.850;6.896;2023-07-02T06:37:23;18.77;;;8.13;;
59854;SDS011;45732;52.850;6.896;2023-07-02T06:39:48;19.08;;;8.50;;
59854;SDS011;45732;52.850;6.896;2023-07-02T06:42:14;20.58;;;7.88;;
59854;SDS011;45732;52.850;6.896;2023-07-02T06:44:40;23.63;;;8.55;;
59854;SDS011;45732;52.850;6.896;2023-07-02T06:47:06;20.02;;;7.57;;
59854;SDS011;45732;52.850;6.896;2023-07-02T06:49:32;21.77;;;7.72;;
59854;SDS011;45732;52.850;6.896;2023-07-02T06:51:58;18.02;;;7.03;;
59854;SDS011;45732;52.850;6.896;2023-07-02T06:54:27;18.23;;;7.80;;
59854;SDS011;45732;52.850;6.896;2023-07-02T06:56:53;19.27;;;7.28;;
59854;SDS011;45732;52.850;6.896;2023-07-02T06:59:19;20.40;;;7.75;;
59854;SDS011;45732;52.850;6.896;2023-07-02T07:01:45;17.55;;;6.68;;
59854;SDS011;45732;52.850;6.896;2023-07-02T07:04:11;15.55;;;6.85;;
59854;SDS011;45732;52.850;6.896;2023-07-02T07:06:37;18.08;;;8.30;;
59854;SDS011;45732;52.850;6.896;2023-07-02T07:09:03;18.23;;;6.85;;
59854;SDS011;45732;52.850;6.896;2023-07-02T07:11:29;18.02;;;7.70;;
59854;SDS011;45732;52.850;6.896;2023-07-02T07:13:54;18.27;;;6.68;;
59854;SDS011;45732;52.850;6.896;2023-07-02T07:16:20;23.42;;;7.50;;
59854;SDS011;45732;52.850;6.896;2023-07-02T07:18:47;19.55;;;7.40;;
59854;SDS011;45732;52.850;6.896;2023-07-02T07:21:13;22.85;;;7.35;;
59854;SDS011;45732;52.850;6.896;2023-07-02T07:23:39;16.73;;;7.32;;
59854;SDS011;45732;52.850;6.896;2023-07-02T07:26:05;18.52;;;7.22;;
59854;SDS011;45732;52.850;6.896;2023-07-02T07:28:31;15.85;;;6.90;;
59854;SDS011;45732;52.850;6.896;2023-07-02T07:30:57;20.23;;;7.28;;
59854;SDS011;45732;52.850;6.896;2023-07-02T07:33:22;16.60;;;6.22;;
59854;SDS011;45732;52.850;6.896;2023-07-02T07:35:48;16.58;;;7.05;;
59854;SDS011;45732;52.850;6.896;2023-07-02T07:38:14;22.00;;;7.28;;
59854;SDS011;45732;52.850;6.896;2023-07-02T07:40:42;17.77;;;6.32;;
59854;SDS011;45732;52.850;6.896;2023-07-02T07:43:08;16.42;;;6.55;;
59854;SDS011;45732;52.850;6.896;2023-07-02T07:45:33;15.90;;;6.47;;
59854;SDS011;45732;52.850;6.896;2023-07-02T07:47:59;15.77;;;6.43;;
59854;SDS011;45732;52.850;6.896;2023-07-02T07:50:25;15.90;;;6.35;;
59854;SDS011;45732;52.850;6.896;2023-07-02T07:52:51;14.45;;;6.72;;
59854;SDS011;45732;52.850;6.896;2023-07-02T07:55:17;16.83;;;5.82;;
59854;SDS011;45732;52.850;6.896;2023-07-02T07:57:43;16.55;;;6.43;;
59854;SDS011;45732;52.850;6.896;2023-07-02T08:00:08;16.25;;;6.53;;
59854;SDS011;45732;52.850;6.896;2023-07-02T08:02:35;17.30;;;6.45;;
59854;SDS011;45732;52.850;6.896;2023-07-02T08:05:01;20.20;;;6.72;;
59854;SDS011;45732;52.850;6.896;2023-07-02T08:07:27;16.33;;;6.38;;
59854;SDS011;45732;52.850;6.896;2023-07-02T08:09:53;14.27;;;6.63;;
59854;SDS011;45732;52.850;6.896;2023-07-02T08:12:19;17.83;;;6.25;;
59854;SDS011;45732;52.850;6.896;2023-07-02T08:14:44;15.18;;;5.80;;
59854;SDS011;45732;52.850;6.896;2023-07-02T08:17:10;14.15;;;4.60;;
59854;SDS011;45732;52.850;6.896;2023-07-02T08:19:36;12.52;;;4.93;;
59854;SDS011;45732;52.850;6.896;2023-07-02T08:22:02;15.27;;;5.32;;
59854;SDS011;45732;52.850;6.896;2023-07-02T08:24:28;13.68;;;4.40;;
59854;SDS011;45732;52.850;6.896;2023-07-02T08:26:56;11.32;;;4.65;;
59854;SDS011;45732;52.850;6.896;2023-07-02T08:29:21;14.77;;;4.88;;
59854;SDS011;45732;52.850;6.896;2023-07-02T08:31:47;13.10;;;4.90;;
59854;SDS011;45732;52.850;6.896;2023-07-02T08:34:13;10.52;;;4.40;;
59854;SDS011;45732;52.850;6.896;2023-07-02T08:36:38;12.70;;;4.00;;
59854;SDS011;45732;52.850;6.896;2023-07-02T08:39:04;11.65;;;3.83;;
59854;SDS011;45732;52.850;6.896;2023-07-02T08:41:30;10.70;;;3.13;;
59854;SDS011;45732;52.850;6.896;2023-07-02T08:44:06;9.80;;;3.25;;
59854;SDS011;45732;52.850;6.896;2023-07-02T08:46:32;10.93;;;3.50;;
59854;SDS011;45732;52.850;6.896;2023-07-02T08:48:57;11.63;;;4.00;;
59854;SDS011;45732;52.850;6.896;2023-07-02T08:51:23;10.65;;;3.63;;
59854;SDS011;45732;52.850;6.896;2023-07-02T08:53:49;11.90;;;4.53;;
59854;SDS011;45732;52.850;6.896;2023-07-02T08:56:15;10.57;;;3.80;;
59854;SDS011;45732;52.850;6.896;2023-07-02T08:58:40;10.82;;;4.13;;
59854;SDS011;45732;52.850;6.896;2023-07-02T09:01:10;14.50;;;3.70;;
59854;SDS011;45732;52.850;6.896;2023-07-02T09:03:37;10.60;;;3.78;;
59854;SDS011;45732;52.850;6.896;2023-07-02T09:06:04;10.77;;;3.58;;
59854;SDS011;45732;52.850;6.896;2023-07-02T09:08:30;10.55;;;4.00;;
59854;SDS011;45732;52.850;6.896;2023-07-02T09:11:08;11.70;;;3.78;;
59854;SDS011;45732;52.850;6.896;2023-07-02T09:13:45;9.48;;;3.40;;
59854;SDS011;45732;52.850;6.896;2023-07-02T09:21:41;12.68;;;3.80;;
59854;SDS011;45732;52.850;6.896;2023-07-02T09:26:48;14.48;;;4.15;;
59854;SDS011;45732;52.850;6.896;2023-07-02T09:29:33;11.73;;;3.95;;
59854;SDS011;45732;52.850;6.896;2023-07-02T09:32:05;11.25;;;3.97;;
59854;SDS011;45732;52.850;6.896;2023-07-02T09:34:35;12.40;;;3.90;;
59854;SDS011;45732;52.850;6.896;2023-07-02T09:37:03;14.57;;;4.35;;
59854;SDS011;45732;52.850;6.896;2023-07-02T09:39:33;11.25;;;4.18;;
59854;SDS011;45732;52.850;6.896;2023-07-02T09:42:02;9.95;;;4.05;;
59854;SDS011;45732;52.850;6.896;2023-07-02T09:44:31;16.17;;;4.32;;
59854;SDS011;45732;52.850;6.896;2023-07-02T09:49:24;14.75;;;4.18;;
59854;SDS011;45732;52.850;6.896;2023-07-02T09:51:51;13.20;;;3.92;;
59854;SDS011;45732;52.850;6.896;2023-07-02T09:54:17;11.27;;;4.18;;
59854;SDS011;45732;52.850;6.896;2023-07-02T09:56:45;15.63;;;4.90;;
59854;SDS011;45732;52.850;6.896;2023-07-02T09:59:13;14.60;;;4.45;;
59854;SDS011;45732;52.850;6.896;2023-07-02T10:01:39;13.73;;;4.88;;
59854;SDS011;45732;52.850;6.896;2023-07-02T10:04:14;13.85;;;4.60;;
59854;SDS011;45732;52.850;6.896;2023-07-02T10:09:13;15.20;;;5.18;;
59854;SDS011;45732;52.850;6.896;2023-07-02T10:11:39;12.63;;;4.72;;
59854;SDS011;45732;52.850;6.896;2023-07-02T10:14:04;17.25;;;5.22;;
59854;SDS011;45732;52.850;6.896;2023-07-02T10:16:30;11.75;;;4.45;;
59854;SDS011;45732;52.850;6.896;2023-07-02T10:19:09;16.40;;;5.35;;
59854;SDS011;45732;52.850;6.896;2023-07-02T10:21:37;14.30;;;5.07;;
59854;SDS011;45732;52.850;6.896;2023-07-02T10:24:13;17.60;;;5.32;;
59854;SDS011;45732;52.850;6.896;2023-07-02T10:29:25;14.30;;;5.03;;
59854;SDS011;45732;52.850;6.896;2023-07-02T10:31:52;13.73;;;5.05;;
59854;SDS011;45732;52.850;6.896;2023-07-02T10:34:29;13.68;;;4.75;;
59854;SDS011;45732;52.850;6.896;2023-07-02T10:37:02;11.07;;;4.15;;
59854;SDS011;45732;52.850;6.896;2023-07-02T10:39:29;12.05;;;4.20;;
59854;SDS011;45732;52.850;6.896;2023-07-02T10:42:05;11.95;;;4.22;;
59854;SDS011;45732;52.850;6.896;2023-07-02T10:44:35;9.38;;;3.60;;
59854;SDS011;45732;52.850;6.896;2023-07-02T10:47:13;13.57;;;4.25;;
59854;SDS011;45732;52.850;6.896;2023-07-02T10:49:38;9.43;;;3.90;;
59854;SDS011;45732;52.850;6.896;2023-07-02T10:52:04;12.30;;;4.20;;
59854;SDS011;45732;52.850;6.896;2023-07-02T10:57:13;11.48;;;3.92;;
59854;SDS011;45732;52.850;6.896;2023-07-02T10:59:45;10.98;;;4.05;;
59854;SDS011;45732;52.850;6.896;2023-07-02T11:02:11;12.40;;;3.97;;
59854;SDS011;45732;52.850;6.896;2023-07-02T11:04:37;11.40;;;4.18;;
59854;SDS011;45732;52.850;6.896;2023-07-02T11:07:03;14.35;;;4.32;;
59854;SDS011;45732;52.850;6.896;2023-07-02T11:09:29;12.63;;;4.85;;
59854;SDS011;45732;52.850;6.896;2023-07-02T11:11:56;17.02;;;5.03;;
59854;SDS011;45732;52.850;6.896;2023-07-02T11:14:29;11.35;;;4.50;;
59854;SDS011;45732;52.850;6.896;2023-07-02T11:16:57;11.52;;;4.35;;
59854;SDS011;45732;52.850;6.896;2023-07-02T11:19:23;14.52;;;4.45;;
59854;SDS011;45732;52.850;6.896;2023-07-02T11:21:53;13.65;;;4.38;;
59854;SDS011;45732;52.850;6.896;2023-07-02T11:24:33;12.80;;;3.97;;
59854;SDS011;45732;52.850;6.896;2023-07-02T11:27:00;12.80;;;5.10;;
59854;SDS011;45732;52.850;6.896;2023-07-02T11:29:28;13.38;;;4.20;;
59854;SDS011;45732;52.850;6.896;2023-07-02T11:32:03;10.90;;;4.22;;
59854;SDS011;45732;52.850;6.896;2023-07-02T11:34:37;12.10;;;4.47;;
59854;SDS011;45732;52.850;6.896;2023-07-02T11:37:03;12.40;;;4.30;;
59854;SDS011;45732;52.850;6.896;2023-07-02T11:39:30;15.35;;;4.18;;
59854;SDS011;45732;52.850;6.896;2023-07-02T11:41:56;12.10;;;3.95;;
59854;SDS011;45732;52.850;6.896;2023-07-02T11:44:22;14.23;;;4.72;;
59854;SDS011;45732;52.850;6.896;2023-07-02T11:46:48;11.98;;;4.03;;
59854;SDS011;45732;52.850;6.896;2023-07-02T11:49:14;13.00;;;4.32;;
59854;SDS011;45732;52.850;6.896;2023-07-02T11:51:40;10.50;;;4.10;;
59854;SDS011;45732;52.850;6.896;2023-07-02T11:54:13;13.45;;;3.90;;
59854;SDS011;45732;52.850;6.896;2023-07-02T11:56:39;14.75;;;4.65;;
59854;SDS011;45732;52.850;6.896;2023-07-02T11:59:07;14.25;;;3.88;;
59854;SDS011;45732;52.850;6.896;2023-07-02T12:01:32;11.95;;;4.28;;
59854;SDS011;45732;52.850;6.896;2023-07-02T12:03:58;14.02;;;4.20;;
59854;SDS011;45732;52.850;6.896;2023-07-02T12:06:24;10.68;;;3.63;;
59854;SDS011;45732;52.850;6.896;2023-07-02T12:08:50;14.00;;;4.63;;
59854;SDS011;45732;52.850;6.896;2023-07-02T12:11:16;11.45;;;3.83;;
59854;SDS011;45732;52.850;6.896;2023-07-02T12:13:41;13.32;;;4.15;;
59854;SDS011;45732;52.850;6.896;2023-07-02T12:16:07;13.32;;;3.50;;
59854;SDS011;45732;52.850;6.896;2023-07-02T12:18:33;11.18;;;3.95;;
59854;SDS011;45732;52.850;6.896;2023-07-02T12:20:59;11.90;;;4.38;;
59854;SDS011;45732;52.850;6.896;2023-07-02T12:23:24;10.85;;;3.83;;
59854;SDS011;45732;52.850;6.896;2023-07-02T12:25:50;11.55;;;3.50;;
59854;SDS011;45732;52.850;6.896;2023-07-02T12:28:16;9.18;;;3.28;;
59854;SDS011;45732;52.850;6.896;2023-07-02T12:30:41;10.00;;;3.90;;
59854;SDS011;45732;52.850;6.896;2023-07-02T12:33:07;15.00;;;3.95;;
59854;SDS011;45732;52.850;6.896;2023-07-02T12:35:33;11.18;;;3.33;;
59854;SDS011;45732;52.850;6.896;2023-07-02T12:37:59;10.40;;;3.58;;
59854;SDS011;45732;52.850;6.896;2023-07-02T12:40:25;12.07;;;3.80;;
59854;SDS011;45732;52.850;6.896;2023-07-02T12:42:51;9.60;;;3.40;;
59854;SDS011;45732;52.850;6.896;2023-07-02T12:45:17;9.30;;;3.28;;
59854;SDS011;45732;52.850;6.896;2023-07-02T12:47:43;9.73;;;2.78;;
59854;SDS011;45732;52.850;6.896;2023-07-02T12:50:09;8.00;;;3.20;;
59854;SDS011;45732;52.850;6.896;2023-07-02T12:52:35;10.70;;;3.35;;
59854;SDS011;45732;52.850;6.896;2023-07-02T12:55:01;10.73;;;3.00;;
59854;SDS011;45732;52.850;6.896;2023-07-02T12:57:27;11.73;;;3.92;;
59854;SDS011;45732;52.850;6.896;2023-07-02T12:59:53;9.73;;;3.33;;
59854;SDS011;45732;52.850;6.896;2023-07-02T13:02:20;10.05;;;3.58;;
59854;SDS011;45732;52.850;6.896;2023-07-02T13:04:47;9.27;;;3.33;;
59854;SDS011;45732;52.850;6.896;2023-07-02T13:07:13;9.93;;;3.80;;
59854;SDS011;45732;52.850;6.896;2023-07-02T13:09:39;10.93;;;3.17;;
59854;SDS011;45732;52.850;6.896;2023-07-02T13:12:05;9.93;;;3.33;;
59854;SDS011;45732;52.850;6.896;2023-07-02T13:14:31;12.98;;;3.45;;
59854;SDS011;45732;52.850;6.896;2023-07-02T13:16:57;11.35;;;3.60;;
59854;SDS011;45732;52.850;6.896;2023-07-02T13:19:24;10.32;;;3.65;;
59854;SDS011;45732;52.850;6.896;2023-07-02T13:21:50;10.40;;;3.47;;
59854;SDS011;45732;52.850;6.896;2023-07-02T13:24:15;8.68;;;3.55;;
59854;SDS011;45732;52.850;6.896;2023-07-02T13:26:41;9.93;;;3.80;;
59854;SDS011;45732;52.850;6.896;2023-07-02T13:29:07;9.10;;;3.45;;
59854;SDS011;45732;52.850;6.896;2023-07-02T13:31:32;10.75;;;3.80;;
59854;SDS011;45732;52.850;6.896;2023-07-02T13:33:58;10.50;;;3.90;;
59854;SDS011;45732;52.850;6.896;2023-07-02T13:36:24;9.30;;;3.50;;
59854;SDS011;45732;52.850;6.896;2023-07-02T13:38:50;8.40;;;3.30;;
59854;SDS011;45732;52.850;6.896;2023-07-02T13:41:15;10.63;;;3.85;;
59854;SDS011;45732;52.850;6.896;2023-07-02T13:43:41;13.45;;;4.05;;
59854;SDS011;45732;52.850;6.896;2023-07-02T13:46:07;12.93;;;4.05;;
59854;SDS011;45732;52.850;6.896;2023-07-02T13:48:32;14.57;;;4.38;;
59854;SDS011;45732;52.850;6.896;2023-07-02T13:51:00;9.80;;;4.18;;
59854;SDS011;45732;52.850;6.896;2023-07-02T13:53:25;11.63;;;4.32;;
59854;SDS011;45732;52.850;6.896;2023-07-02T13:55:51;10.73;;;4.13;;
59854;SDS011;45732;52.850;6.896;2023-07-02T13:58:17;11.52;;;4.18;;
59854;SDS011;45732;52.850;6.896;2023-07-02T14:00:42;11.63;;;4.65;;
59854;SDS011;45732;52.850;6.896;2023-07-02T14:03:08;9.57;;;4.45;;
59854;SDS011;45732;52.850;6.896;2023-07-02T14:05:34;10.30;;;4.63;;
59854;SDS011;45732;52.850;6.896;2023-07-02T14:07:59;9.65;;;4.22;;
59854;SDS011;45732;52.850;6.896;2023-07-02T14:10:25;10.20;;;4.32;;
59854;SDS011;45732;52.850;6.896;2023-07-02T14:12:53;12.00;;;4.38;;
59854;SDS011;45732;52.850;6.896;2023-07-02T14:15:19;11.88;;;5.18;;
59854;SDS011;45732;52.850;6.896;2023-07-02T14:17:45;11.63;;;4.45;;
59854;SDS011;45732;52.850;6.896;2023-07-02T14:20:10;14.68;;;4.78;;
59854;SDS011;45732;52.850;6.896;2023-07-02T14:22:36;11.80;;;4.70;;
59854;SDS011;45732;52.850;6.896;2023-07-02T14:25:02;12.32;;;4.93;;
59854;SDS011;45732;52.850;6.896;2023-07-02T14:27:28;12.63;;;4.45;;
59854;SDS011;45732;52.850;6.896;2023-07-02T14:29:53;13.77;;;4.97;;
59854;SDS011;45732;52.850;6.896;2023-07-02T14:32:19;10.38;;;4.28;;
59854;SDS011;45732;52.850;6.896;2023-07-02T14:34:45;11.00;;;4.80;;
59854;SDS011;45732;52.850;6.896;2023-07-02T14:37:11;13.80;;;5.10;;
59854;SDS011;45732;52.850;6.896;2023-07-02T14:39:36;12.27;;;4.32;;
59854;SDS011;45732;52.850;6.896;2023-07-02T14:42:02;10.50;;;4.25;;
59854;SDS011;45732;52.850;6.896;2023-07-02T14:44:28;13.10;;;4.90;;
59854;SDS011;45732;52.850;6.896;2023-07-02T14:46:54;8.93;;;4.05;;
59854;SDS011;45732;52.850;6.896;2023-07-02T14:49:19;9.63;;;4.32;;
59854;SDS011;45732;52.850;6.896;2023-07-02T14:51:45;10.23;;;4.25;;